Latest Weather Observations for Lajamanu

IDD60801

Issued at 12:31 pm CST Saturday 25 June 2016 (issued every 30 minutes, with the page automatically refreshed every 10 minutes)

About weather observations | Map of weather stations | Latest weather observations for NT | Other Formats
Station Details ID: 014829 Name: LAJAMANU AIRPORT Lat: -18.33 Lon: 130.64 Height: 315.6 m
Data from the previous 72 hours. | See also: Recent months at Lajamanu
Date/Time
CST
Temp
°C
App
Temp
°C
Dew
Point
°C
Rel
Hum
%
Delta-T
°C
Wind Press
QNH
hPa
Press
MSL
hPa
Rain since
9am
mm
Dir  Spd
km/h
Gust
km/h
Spd
kts
Gust
kts
25/12:30pm 26.6 23.7 8.1 31 10.1 ENE 13 20 7 11 1015.8 1015.0 0.0
25/12:00pm 25.5 22.7 8.5 34 9.3 NE 13 24 7 13 1016.3 1015.4 0.0
25/11:30am 25.0 21.8 8.5 35 9.0 NE 15 22 8 12 1016.9 1016.1 0.0
25/11:00am 24.2 20.7 8.6 37 8.5 NE 17 26 9 14 1017.1 1016.3 0.0
25/10:30am 23.2 19.7 8.9 40 7.8 NE 17 24 9 13 1017.4 1016.6 0.0
25/10:00am 21.6 18.1 8.8 44 6.9 ENE 17 24 9 13 1017.4 1016.6 0.0
25/09:30am 20.7 17.0 9.6 49 6.0 ENE 19 28 10 15 1017.3 1016.5 0.0
25/09:00am 19.4 16.1 9.6 53 5.3 ENE 17 22 9 12 1017.2 1016.4 0.0
25/08:30am 19.0 16.2 10.0 56 4.9 ENE 15 24 8 13 1016.8 1016.0 0.0
25/08:00am 18.3 16.0 10.4 60 4.3 ENE 13 20 7 11 1016.4 1015.5 0.0
25/07:30am 17.9 15.6 10.5 62 4.0 ENE 13 20 7 11 1016.2 1015.3 0.0
25/07:00am 18.1 16.0 11.0 63 3.9 ENE 13 20 7 11 1015.9 1015.1 0.0
25/06:30am 17.3 15.9 10.9 66 3.5 ENE 9 13 5 7 1016.3 1015.4 0.0
25/06:00am 18.1 16.3 11.0 63 3.9 E 11 15 6 8 1016.0 1015.2 0.0
25/05:30am 18.8 17.1 11.1 61 4.3 E 11 15 6 8 1015.9 1015.1 0.0
25/05:00am 19.2 16.8 11.5 61 4.3 E 15 20 8 11 1015.6 1014.8 0.0
25/04:30am 19.1 17.5 11.4 61 4.3 E 11 17 6 9 1015.4 1014.6 0.0
25/04:00am 19.8 17.7 11.0 57 4.9 E 13 17 7 9 1015.4 1014.6 0.0
25/03:30am 20.2 17.7 10.9 55 5.2 E 15 20 8 11 1015.4 1014.6 0.0
25/03:00am 19.9 17.0 9.5 51 5.6 E 15 22 8 12 1015.5 1014.7 0.0
25/02:30am 20.2 17.0 8.5 47 6.2 E 15 20 8 11 1015.5 1014.7 0.0
25/02:00am 19.5 16.9 7.6 46 6.2 E 11 15 6 8 1015.4 1014.6 0.0
25/01:30am 20.0 17.1 6.7 42 6.8 E 11 13 6 7 1015.3 1014.5 0.0
25/01:00am 20.7 17.9 7.0 41 7.1 E 11 15 6 8 1015.2 1014.4 0.0
25/12:30am 20.9 18.0 6.4 39 7.4 E 11 13 6 7 1015.3 1014.5 0.0
25/12:00am 22.0 18.7 6.3 36 8.1 E 13 15 7 8 1015.4 1014.6 0.0
 
Date/Time
CST
Temp
°C
App
Temp
°C
Dew
Point
°C
Rel
Hum
%
Delta-T
°C
Wind Press
QNH
hPa
Press
MSL
hPa
Rain since
9am
mm
Dir  Spd
km/h
Gust
km/h
Spd
kts
Gust
kts
24/11:30pm 22.4 19.0 5.8 34 8.5 E 13 15 7 8 1015.3 1014.5 0.0
24/11:00pm 23.0 19.6 5.9 33 8.8 E 13 15 7 8 1015.4 1014.6 0.0
24/10:30pm 23.3 20.3 6.1 33 8.9 E 11 15 6 8 1015.4 1014.6 0.0
24/10:00pm 23.2 20.2 6.1 33 8.8 ESE 11 13 6 7 1015.3 1014.5 0.0
24/09:30pm 24.3 21.6 5.6 30 9.6 E 9 11 5 6 1015.3 1014.5 0.0
24/09:00pm 24.8 22.1 5.6 29 9.9 E 9 13 5 7 1015.1 1014.3 0.0
24/08:30pm 24.3 21.2 5.6 30 9.6 E 11 11 6 6 1014.9 1014.1 0.0
24/08:00pm 23.7 20.9 5.1 30 9.5 E 9 9 5 5 1014.6 1013.8 0.0
24/07:30pm 24.2 21.4 5.1 29 9.7 E 9 11 5 6 1014.3 1013.5 0.0
24/07:00pm 25.5 22.5 4.0 25 10.9 E 9 9 5 5 1014.0 1013.2 0.0
24/06:30pm 27.4 24.3 3.8 22 12.0 E 9 9 5 5 1013.7 1012.8 0.0
24/06:00pm 29.8 26.7 3.7 19 13.5 ENE 9 11 5 6 1013.3 1012.4 0.0
24/05:30pm 30.9 27.3 3.0 17 14.3 E 11 17 6 9 1013.2 1012.3 0.0
24/05:00pm 31.8 27.8 2.9 16 14.9 E 13 17 7 9 1012.8 1011.9 0.0
24/04:30pm 32.3 28.6 2.4 15 15.3 E 11 15 6 8 1012.5 1011.7 0.0
24/04:00pm 32.6 29.7 2.6 15 15.4 ENE 7 17 4 9 1012.4 1011.6 0.0
24/03:30pm 33.0 29.0 2.9 15 15.6 E 13 20 7 11 1012.4 1011.6 0.0
24/03:00pm 32.7 29.1 2.7 15 15.5 NE 11 19 6 10 1012.5 1011.7 0.0
24/02:30pm 32.2 28.6 3.2 16 15.0 ESE 11 20 6 11 1013.0 1012.1 0.0
24/02:00pm 32.5 28.1 2.5 15 15.4 ESE 15 26 8 14 1013.3 1012.4 0.0
24/01:30pm 31.9 27.7 3.8 17 14.7 ENE 15 22 8 12 1013.8 1013.0 0.0
24/01:00pm 32.0 28.0 4.7 18 14.5 E 15 22 8 12 1014.3 1013.5 0.0
24/12:30pm 31.5 27.4 4.3 18 14.3 E 15 20 8 11 1014.9 1014.1 0.0
24/12:00pm 31.0 27.0 4.7 19 13.9 ENE 15 22 8 12 1015.3 1014.5 0.0
24/11:30am 29.7 26.0 4.4 20 13.2 E 13 20 7 11 1015.7 1014.9 0.0
24/11:00am 29.0 25.4 5.1 22 12.6 ESE 13 22 7 12 1015.9 1015.1 0.0
24/10:30am 27.9 25.2 7.2 27 11.2 E 11 17 6 9 1016.0 1015.2 0.0
24/10:00am 26.3 23.3 7.8 31 10.0 ESE 13 19 7 10 1016.4 1015.5 0.0
24/09:30am 24.7 21.5 8.6 36 8.8 SE 15 20 8 11 1016.4 1015.5 0.0
24/09:00am 22.8 20.7 9.6 43 7.2 SE 11 15 6 8 1016.3 1015.4 0.0
24/08:30am 20.5 18.7 9.4 49 6.0 SSE 9 15 5 8 1016.0 1015.2 0.0
24/08:00am 18.4 16.9 9.2 55 4.9 SSE 7 9 4 5 1015.8 1015.0 0.0
24/07:30am 17.4 15.6 8.0 54 4.9 SSE 7 9 4 5 1015.4 1014.6 0.0
24/07:00am 18.4 16.8 7.8 50 5.5 SSE 6 7 3 4 1015.1 1014.3 0.0
24/06:30am 18.3 16.5 8.0 51 5.3 SSE 7 9 4 5 1014.9 1014.1 0.0
24/06:00am 17.5 15.7 8.1 54 4.9 S 7 7 4 4 1014.6 1013.8 0.0
24/05:30am 17.8 16.7 7.0 49 5.5 SSE 2 6 1 3 1014.3 1013.5 0.0
24/05:00am 18.4 16.5 6.9 47 5.9 SSE 6 7 3 4 1014.3 1013.5 0.0
24/04:30am 17.2 14.7 8.4 56 4.6 SSW 11 13 6 7 1014.4 1013.6 0.0
24/04:00am 16.1 13.8 7.3 56 4.4 WNW 9 13 5 7 1014.1 1013.3 0.0
24/03:30am 16.9 14.7 6.4 50 5.2 NNW 7 9 4 5 1013.6 1012.7 0.0
24/03:00am 16.2 15.7 7.9 58 4.2 CALM 0 0 0 0 1013.6 1012.7 0.0
24/02:30am 16.7 16.1 7.4 54 4.7 CALM 0 0 0 0 1013.7 1012.8 0.0
24/02:00am 16.1 15.6 7.8 58 4.2 CALM 0 0 0 0 1013.8 1013.0 0.0
24/01:30am 16.9 16.1 6.4 50 5.2 CALM 0 4 0 2 1013.9 1013.1 0.0
24/01:00am 17.4 16.8 7.5 52 5.1 CALM 0 4 0 2 1013.9 1013.1 0.0
24/12:30am 17.3 15.7 8.2 55 4.7 SSW 6 9 3 5 1014.1 1013.3 0.0
24/12:00am 16.8 16.0 6.3 50 5.2 CALM 0 0 0 0 1014.0 1013.2 0.0
 
Date/Time
CST
Temp
°C
App
Temp
°C
Dew
Point
°C
Rel
Hum
%
Delta-T
°C
Wind Press
QNH
hPa
Press
MSL
hPa
Rain since
9am
mm
Dir  Spd
km/h
Gust
km/h
Spd
kts
Gust
kts
23/11:30pm 17.9 17.3 7.3 50 5.4 CALM 0 0 0 0 1013.7 1012.8 0.0
23/11:00pm 18.9 17.5 7.4 47 5.9 NE 4 11 2 6 1013.6 1012.7 0.0
23/10:30pm 18.8 18.0 6.3 44 6.3 CALM 0 0 0 0 1013.6 1012.7 0.0
23/10:00pm 18.8 18.4 8.2 50 5.5 CALM 0 0 0 0 1013.6 1012.7 0.0
23/09:30pm 19.9 18.4 4.8 37 7.5 NE 2 7 1 4 1013.4 1012.5 0.0
23/09:00pm 21.6 18.9 3.8 31 8.7 E 7 9 4 5 1013.3 1012.4 0.0
23/08:30pm 22.0 19.2 3.2 29 9.1 E 7 7 4 4 1013.0 1012.1 0.0
23/08:00pm 23.0 20.1 4.5 30 9.3 ENE 9 9 5 5 1012.6 1011.8 0.0
23/07:30pm 23.8 20.6 3.2 26 10.1 ENE 9 11 5 6 1012.2 1011.4 0.0
23/07:00pm 24.4 21.2 3.1 25 10.5 ENE 9 9 5 5 1011.9 1011.1 0.0
23/06:30pm 27.1 25.0 1.5 19 12.5 ESE 2 9 1 5 1011.6 1010.8 0.0
23/06:00pm 30.2 27.9 2.5 17 14.0 SSE 4 6 2 3 1011.4 1010.6 0.0
23/05:30pm 31.6 28.4 0.9 14 15.3 SE 7 9 4 5 1011.2 1010.4 0.0
23/05:00pm 32.1 29.2 1.3 14 15.5 S 6 11 3 6 1011.1 1010.3 0.0
23/04:30pm 32.1 29.2 1.3 14 15.5 SW 6 7 3 4 1010.9 1010.0 0.0
23/04:00pm 32.6 29.6 1.7 14 15.7 SW 7 13 4 7 1011.1 1010.3 0.0
23/03:30pm 32.4 29.3 1.5 14 15.6 NW 7 11 4 6 1011.1 1010.3 0.0
23/03:00pm 32.3 28.8 1.4 14 15.6 WNW 9 17 5 9 1011.4 1010.6 0.0
23/02:30pm 31.6 28.4 0.9 14 15.3 NW 7 13 4 7 1011.7 1010.9 0.0
23/02:00pm 31.4 27.6 1.7 15 15.0 SSW 11 17 6 9 1012.2 1011.4 0.0
23/01:30pm 30.9 27.3 0.3 14 15.0 S 9 19 5 10 1012.9 1012.0 0.0
23/01:00pm 30.2 27.0 -0.2 14 14.7 NNW 6 15 3 8 1013.5 1012.6 0.0
23/12:30pm 30.1 27.1 0.6 15 14.5 ENE 6 9 3 5 1014.1 1013.3 0.0
23/12:00pm 29.8 26.2 0.4 15 14.3 NNW 9 15 5 8 1014.5 1013.7 0.0
23/11:30am 29.0 24.9 -0.2 15 14.0 N 11 15 6 8 1014.7 1013.9 0.0
23/11:00am 28.3 23.9 0.1 16 13.5 N 13 19 7 10 1015.1 1014.3 0.0
23/10:30am 27.4 23.1 1.0 18 12.8 N 13 19 7 10 1015.1 1014.3 0.0
23/10:00am 25.1 22.2 2.5 23 11.1 N 7 11 4 6 1015.3 1014.5 0.0
23/09:30am 22.5 19.3 3.1 28 9.4 NNW 9 11 5 6 1015.4 1014.6 0.0
23/09:00am 19.1 17.0 5.9 42 6.6 WNW 6 7 3 4 1015.3 1014.5 0.0
23/08:30am 16.0 14.5 6.7 54 4.6 WNW 4 7 2 4 1014.9 1014.1 0.0
23/08:00am 12.9 11.1 7.1 68 2.9 WSW 6 7 3 4 1014.7 1013.9 0.0
23/07:30am 10.5 8.4 5.7 72 2.2 WSW 6 7 3 4 1014.4 1013.6 0.0
23/07:00am 11.2 8.9 5.7 69 2.6 NW 7 9 4 5 1013.9 1013.1 0.0
23/06:30am 12.5 9.1 5.7 63 3.2 NNW 13 13 7 7 1013.5 1012.6 0.0
23/06:00am 12.0 9.9 6.5 69 2.7 NW 7 9 4 5 1013.5 1012.6 0.0
23/05:30am 12.2 10.2 6.3 67 2.8 NNW 6 7 3 4 1013.7 1012.8 0.0
23/05:00am 13.3 11.2 6.6 64 3.3 NNW 7 9 4 5 1013.7 1012.8 0.0
23/04:30am 13.4 11.0 7.2 66 3.1 NNW 9 11 5 6 1013.7 1012.8 0.0
23/04:00am 12.9 11.6 7.6 70 2.6 NNW 4 7 2 4 1013.8 1013.0 0.0
23/03:30am 12.6 12.1 7.7 72 2.4 CALM 0 0 0 0 1013.8 1013.0 0.0
23/03:00am 13.6 12.9 6.9 64 3.3 CALM 0 0 0 0 1014.0 1013.2 0.0
23/02:30am 13.5 12.9 7.5 67 3.0 CALM 0 0 0 0 1014.2 1013.4 0.0
23/02:00am 13.1 11.7 7.1 67 3.0 SSW 4 6 2 3 1014.5 1013.7 0.0
23/01:30am 13.7 12.6 8.5 71 2.6 S 4 7 2 4 1014.4 1013.6 0.0
23/01:00am 14.0 13.5 7.8 66 3.1 CALM 0 0 0 0 1014.4 1013.6 0.0
23/12:30am 14.7 13.1 8.2 65 3.3 ENE 6 9 3 5 1014.5 1013.7 0.0
23/12:00am 14.8 13.8 7.4 61 3.7 ENE 2 6 1 3 1014.6 1013.8 0.0
 
Date/Time
CST
Temp
°C
App
Temp
°C
Dew
Point
°C
Rel
Hum
%
Delta-T
°C
Wind Press
QNH
hPa
Press
MSL
hPa
Rain since
9am
mm
Dir  Spd
km/h
Gust
km/h
Spd
kts
Gust
kts
22/11:30pm 15.8 13.5 5.7 51 4.9 E 7 7 4 4 1014.6 1013.8 0.0
22/11:00pm 16.9 14.0 4.9 45 5.8 ENE 9 11 5 6 1014.6 1013.8 0.0
22/10:30pm 17.1 14.1 4.1 42 6.2 ENE 9 9 5 5 1014.4 1013.6 0.0
22/10:00pm 18.2 15.4 5.1 42 6.4 ENE 9 11 5 6 1014.3 1013.5 0.0
22/09:30pm 18.5 15.1 3.9 38 7.0 E 11 11 6 6 1014.1 1013.3 0.0
22/09:00pm 19.1 15.6 3.7 36 7.4 E 11 11 6 6 1013.6 1012.7 0.0
22/08:30pm 20.0 16.7 4.5 36 7.6 E 11 13 6 7 1013.3 1012.4 0.0
22/08:00pm 20.7 17.2 3.4 32 8.4 E 11 11 6 6 1013.0 1012.1 0.0
22/07:30pm 21.1 17.9 3.3 31 8.6 ESE 9 9 5 5 1012.6 1011.8 0.0
22/07:00pm 23.1 19.9 3.1 27 9.8 E 9 11 5 6 1012.3 1011.5 0.0
22/06:30pm 24.3 21.7 3.0 25 10.5 SE 6 7 3 4 1012.2 1011.4 0.0
22/06:00pm 27.6 25.4 3.3 21 12.3 SSE 4 6 2 3 1012.2 1011.4 0.0
22/05:30pm 29.1 26.2 2.4 18 13.4 SSE 7 11 4 6 1011.9 1011.1 0.0
22/05:00pm 29.7 26.8 1.2 16 14.1 ESE 6 11 3 6 1011.8 1011.0 0.0
22/04:30pm 30.0 27.1 1.5 16 14.2 WNW 6 11 3 6 1012.0 1011.2 0.0
22/04:00pm 30.2 27.6 0.7 15 14.5 SSW 4 7 2 4 1012.1 1011.3 0.0
22/03:30pm 29.8 26.3 1.3 16 14.1 S 9 15 5 8 1012.3 1011.5 0.0
22/03:00pm 29.7 26.9 2.1 17 13.8 NE 6 11 3 6 1012.4 1011.6 0.0
22/02:30pm 29.3 25.9 1.7 17 13.7 SE 9 17 5 9 1012.8 1011.9 0.0
22/02:00pm 29.5 26.6 2.7 18 13.6 NNE 7 15 4 8 1013.1 1012.2 0.0
22/01:30pm 28.7 25.0 2.1 18 13.3 ESE 11 19 6 10 1013.8 1013.0 0.0
22/01:00pm 29.1 25.7 1.6 17 13.6 NNE 9 13 5 7 1014.4 1013.6 0.0

Other Formats:

Comma delimited format used in spreadsheet applications
http://www.bom.gov.au/fwo/IDD60801/IDD60801.94231.axf

JavaScript Object Notation format (JSON) in row-major order
http://www.bom.gov.au/fwo/IDD60801/IDD60801.94231.json